Date,TemperatureHighF,TemperatureAvgF,TemperatureLowF,DewpointHighF,DewpointAvgF,DewpointLowF,HumidityHigh,HumidityAvg,HumidityLow,PressureMaxIn,PressureMinIn,WindSpeedMaxMPH,WindSpeedAvgMPH,GustSpeedMaxMPH,PrecipitationSumIn
2013-7-1,86.0,69.2,49.0,59.0,53.0,49.0,99,64,32,0.00,40.00,13,-8,20,0.00
2013-7-2,86.0,67.0,54.0,61.0,57.0,53.0,99,76,34,0.00,40.00,9,-21,21,0.00
2013-7-3,87.0,71.4,52.0,64.0,58.0,52.0,99,68,38,0.00,40.00,8,-10,11,0.00
2013-7-4,86.0,73.0,57.0,64.0,60.0,57.0,99,67,41,0.00,40.00,22,0,30,0.00
2013-7-5,86.0,76.2,68.0,69.0,63.4,58.0,78,65,55,0.00,40.00,21,-8,29,0.00
2013-7-6,88.0,77.9,74.0,73.0,66.8,63.0,78,68,59,0.00,40.00,19,11,27,0.00
2013-7-7,90.0,79.6,67.0,77.0,71.0,66.0,97,76,56,0.00,40.00,19,5,39,0.03
2013-7-8,93.0,77.4,67.0,76.0,70.3,-99.9,99,84,52,0.00,40.00,15,3,20,0.00
2013-7-9,90.0,79.7,71.0,76.0,73.1,69.0,99,81,60,0.00,40.00,11,-4,17,0.12
2013-7-10,85.0,72.5,63.0,71.0,59.7,-99.9,99,70,41,0.00,40.00,10,4,15,0.00
2013-7-11,85.0,71.8,57.0,66.0,62.5,57.0,99,75,48,0.00,40.00,14,-25,21,0.00
2013-7-12,89.0,78.0,67.0,74.0,67.6,61.0,86,71,60,0.00,40.00,20,11,29,0.00
2013-7-13,92.0,81.3,74.0,76.0,70.4,65.0,80,69,58,0.00,40.00,17,10,25,0.00
2013-7-14,87.0,77.2,67.0,71.0,66.9,60.0,98,72,51,0.00,40.00,10,-14,16,0.00
2013-7-15,89.0,74.0,58.0,73.0,66.6,58.0,99,80,52,0.00,40.00,9,-8,14,0.00
2013-7-16,89.0,78.8,63.0,72.0,67.7,63.0,99,72,49,0.00,40.00,10,4,16,0.00
2013-7-17,92.0,78.8,65.0,74.0,70.2,65.0,99,78,50,0.00,40.00,14,-14,19,0.00
2013-7-18,92.0,81.2,71.0,73.0,71.1,69.0,99,74,48,0.00,40.00,17,8,26,0.00
2013-7-19,89.0,83.5,69.0,74.0,67.9,63.0,92,61,42,0.00,40.00,12,6,18,0.00
2013-7-20,86.0,70.8,55.0,69.0,61.5,-99.9,99,76,51,0.00,40.00,8,3,14,0.00
2013-7-21,90.0,77.4,66.0,72.0,68.9,66.0,99,78,49,0.00,40.00,7,2,9,0.00
2013-7-22,91.0,75.8,64.0,77.0,69.5,62.0,99,82,56,0.00,40.00,11,5,19,0.00
2013-7-23,81.0,70.3,60.0,64.0,60.8,59.0,99,74,47,0.00,40.00,10,-18,19,0.00
2013-7-24,85.0,68.4,51.0,65.0,59.2,51.0,99,75,46,0.00,40.00,7,-18,12,0.00
2013-7-25,87.0,69.7,58.0,71.0,64.9,58.0,99,86,52,0.00,40.00,23,-13,28,0.13
2013-7-26,73.0,65.5,56.0,67.0,58.4,52.0,99,79,50,0.00,40.00,16,6,24,0.00
2013-7-27,70.0,59.8,48.0,56.0,50.3,46.0,99,74,45,0.00,40.00,11,-25,18,0.00
2013-7-28,77.0,61.3,42.0,55.0,48.4,42.0,100,68,38,0.00,40.00,7,-8,12,0.00
2013-7-29,68.0,62.2,46.0,63.0,56.3,46.0,100,82,64,0.00,40.00,10,-9,16,0.00
2013-7-30,75.0,68.4,63.0,68.0,65.2,62.0,99,89,73,0.00,40.00,6,2,9,0.00
2013-7-31,83.0,70.8,57.0,69.0,62.7,57.0,99,78,52,0.00,40.00,7,2,11,0.00